createdAt,value
2018-08-03T00:01:27.969Z,21.15
2018-08-03T00:03:56.509Z,21.37
2018-08-03T00:06:25.998Z,21.49
2018-08-03T00:08:54.535Z,21.40
2018-08-03T00:11:23.140Z,21.21
2018-08-03T00:13:51.839Z,21.32
2018-08-03T00:16:20.420Z,20.96
2018-08-03T00:18:48.991Z,21.13
2018-08-03T00:21:17.585Z,21.19
2018-08-03T00:23:46.138Z,20.78
2018-08-03T00:26:14.769Z,21.02
2018-08-03T00:28:43.319Z,20.79
2018-08-03T00:31:12.504Z,21.01
2018-08-03T00:33:41.064Z,20.80
2018-08-03T00:36:09.640Z,20.60
2018-08-03T00:38:38.216Z,20.81
2018-08-03T00:41:06.813Z,20.76
2018-08-03T00:43:35.371Z,20.59
2018-08-03T00:46:04.014Z,20.80
2018-08-03T00:48:32.573Z,20.45
2018-08-03T00:51:01.214Z,20.26
2018-08-03T00:53:29.800Z,20.22
2018-08-03T00:55:58.364Z,20.26
2018-08-03T00:58:26.961Z,20.55
2018-08-03T01:00:55.515Z,20.41
2018-08-03T01:03:24.061Z,20.44
2018-08-03T01:05:52.636Z,20.45
2018-08-03T01:08:21.163Z,20.48
2018-08-03T01:10:49.668Z,20.59
2018-08-03T01:13:18.217Z,20.28
2018-08-03T01:15:46.704Z,20.44
2018-08-03T01:18:15.236Z,20.71
2018-08-03T01:20:43.752Z,20.39
2018-08-03T01:23:12.285Z,20.03
2018-08-03T01:25:40.782Z,20.37
2018-08-03T01:28:09.325Z,20.43
2018-08-03T01:30:37.860Z,20.56
2018-08-03T01:33:06.484Z,20.44
2018-08-03T01:35:34.995Z,20.45
2018-08-03T01:38:03.506Z,20.44
2018-08-03T01:40:31.993Z,20.59
2018-08-03T01:43:00.607Z,20.28
2018-08-03T01:45:29.208Z,20.37
2018-08-03T01:47:57.764Z,20.28
2018-08-03T01:50:26.272Z,19.89
2018-08-03T01:52:54.820Z,20.05
2018-08-03T01:55:23.788Z,19.87
2018-08-03T01:57:52.529Z,20.03
2018-08-03T02:00:21.376Z,20.28
2018-08-03T02:02:50.108Z,20.22
2018-08-03T02:05:18.613Z,20.38
2018-08-03T02:07:47.175Z,20.37
2018-08-03T02:10:15.701Z,20.38
2018-08-03T02:12:44.220Z,20.19
2018-08-03T02:15:12.775Z,19.91
2018-08-03T02:17:41.308Z,19.89
2018-08-03T02:20:09.977Z,20.15
2018-08-03T02:22:38.515Z,20.13
2018-08-03T02:25:07.326Z,20.11
2018-08-03T02:27:35.865Z,20.11
2018-08-03T02:30:04.973Z,20.17
2018-08-03T02:32:33.532Z,20.14
2018-08-03T02:35:02.049Z,19.86
2018-08-03T02:37:30.601Z,19.82
2018-08-03T02:39:59.104Z,20.00
2018-08-03T02:42:27.636Z,19.72
2018-08-03T02:44:56.200Z,19.72
2018-08-03T02:47:24.717Z,19.41
2018-08-03T02:49:53.249Z,19.61
2018-08-03T02:52:21.744Z,19.81
2018-08-03T02:54:50.343Z,19.16
2018-08-03T02:57:19.118Z,19.26
2018-08-03T02:59:47.656Z,19.66
2018-08-03T03:02:16.153Z,19.73
2018-08-03T03:04:44.692Z,19.82
2018-08-03T03:07:14.248Z,19.69
2018-08-03T03:09:42.767Z,19.53
2018-08-03T03:12:11.351Z,19.31
2018-08-03T03:14:39.899Z,19.37
2018-08-03T03:17:08.417Z,19.36
2018-08-03T03:19:37.231Z,19.59
2018-08-03T03:22:05.771Z,19.67
2018-08-03T03:24:34.337Z,19.56
2018-08-03T03:27:02.857Z,19.66
2018-08-03T03:29:31.389Z,19.46
2018-08-03T03:31:59.941Z,19.14
2018-08-03T03:34:28.472Z,19.00
2018-08-03T03:36:56.964Z,19.17
2018-08-03T03:39:25.506Z,19.22
2018-08-03T03:41:54.000Z,19.22
2018-08-03T03:44:22.600Z,19.13
2018-08-03T03:46:51.108Z,19.09
2018-08-03T03:49:19.635Z,19.06
2018-08-03T03:51:48.148Z,18.81
2018-08-03T03:54:16.701Z,18.93
2018-08-03T03:56:48.413Z,19.25
2018-08-03T03:59:16.964Z,19.12
2018-08-03T04:01:45.484Z,18.82
2018-08-03T04:04:14.385Z,18.88
2018-08-03T04:06:42.894Z,19.18
2018-08-03T04:09:13.012Z,19.38
2018-08-03T04:11:42.053Z,19.23
2018-08-03T04:14:10.767Z,19.29
2018-08-03T04:16:39.348Z,19.10
2018-08-03T04:19:08.141Z,19.24
2018-08-03T04:21:37.491Z,19.30
2018-08-03T04:24:06.059Z,19.04
2018-08-03T04:26:34.597Z,18.82
2018-08-03T04:29:03.136Z,18.97
2018-08-03T04:31:31.633Z,19.32
2018-08-03T04:34:00.194Z,19.32
2018-08-03T04:36:28.709Z,19.45
2018-08-03T04:38:57.253Z,19.35
2018-08-03T04:41:25.788Z,19.35
2018-08-03T04:43:54.321Z,19.35
2018-08-03T04:46:22.893Z,19.49
2018-08-03T04:48:51.400Z,19.27
2018-08-03T04:51:19.959Z,19.22
2018-08-03T04:53:48.456Z,19.37
2018-08-03T04:56:16.997Z,19.61
2018-08-03T04:58:45.497Z,19.41
2018-08-03T05:01:14.649Z,19.56
2018-08-03T05:03:43.147Z,19.36
2018-08-03T05:06:11.709Z,19.66
2018-08-03T05:08:40.254Z,19.72
2018-08-03T05:11:08.829Z,19.64
2018-08-03T05:13:37.368Z,19.55
2018-08-03T05:16:05.897Z,19.76
2018-08-03T05:18:34.562Z,19.74
2018-08-03T05:21:03.108Z,19.81
2018-08-03T05:23:31.642Z,19.77
2018-08-03T05:26:00.452Z,20.07
2018-08-03T05:28:29.140Z,20.11
2018-08-03T05:30:57.712Z,20.24
2018-08-03T05:33:26.608Z,20.31
2018-08-03T05:35:55.780Z,20.46
2018-08-03T05:38:24.256Z,20.46
2018-08-03T05:40:52.792Z,20.48
2018-08-03T05:43:21.308Z,20.70
2018-08-03T05:45:49.973Z,20.72
2018-08-03T05:48:18.488Z,20.76
2018-08-03T05:50:47.043Z,20.85
2018-08-03T05:53:15.612Z,20.97
2018-08-03T05:55:44.884Z,21.07
2018-08-03T05:58:13.398Z,21.29
2018-08-03T06:00:41.969Z,21.28
2018-08-03T06:03:10.784Z,21.43
2018-08-03T06:05:39.675Z,21.58
2018-08-03T06:08:08.216Z,21.68
2018-08-03T06:10:36.772Z,21.75
2018-08-03T06:13:05.301Z,21.77
2018-08-03T06:15:33.899Z,21.85
2018-08-03T06:18:02.425Z,21.98
2018-08-03T06:20:31.027Z,22.08
2018-08-03T06:22:59.528Z,22.16
2018-08-03T06:25:28.070Z,22.28
2018-08-03T06:27:56.572Z,22.36
2018-08-03T06:30:25.076Z,22.44
2018-08-03T06:32:53.613Z,22.54
2018-08-03T06:35:22.116Z,22.64
2018-08-03T06:37:50.952Z,22.76
2018-08-03T06:40:19.462Z,22.85
2018-08-03T06:42:48.005Z,22.92
2018-08-03T06:45:16.546Z,22.99
2018-08-03T06:47:45.217Z,23.10
2018-08-03T06:50:13.991Z,23.19
2018-08-03T06:52:42.539Z,23.31
2018-08-03T06:55:11.044Z,23.48
2018-08-03T06:57:39.583Z,23.54
2018-08-03T07:00:08.384Z,23.67
2018-08-03T07:02:36.956Z,23.75
2018-08-03T07:05:05.465Z,23.85
2018-08-03T07:07:34.024Z,23.97
2018-08-03T07:10:02.649Z,24.03
2018-08-03T07:12:31.380Z,24.12
2018-08-03T07:15:02.923Z,24.29
2018-08-03T07:17:31.469Z,24.44
2018-08-03T07:20:00.482Z,24.59
2018-08-03T07:22:29.170Z,24.69
2018-08-03T07:24:57.676Z,24.74
2018-08-03T07:27:26.476Z,24.88
2018-08-03T07:29:55.204Z,25.04
2018-08-03T07:32:23.848Z,25.24
2018-08-03T07:34:52.676Z,25.39
2018-08-03T07:37:24.394Z,25.44
2018-08-03T07:39:53.946Z,25.63
2018-08-03T07:42:24.281Z,25.64
2018-08-03T07:44:54.974Z,25.72
2018-08-03T07:47:24.861Z,25.90
2018-08-03T07:49:58.987Z,25.94
2018-08-03T07:52:27.746Z,25.99
2018-08-03T07:54:56.253Z,26.21
2018-08-03T07:57:24.820Z,26.27
2018-08-03T07:59:53.677Z,26.24
2018-08-03T08:02:22.341Z,26.29
2018-08-03T08:04:50.865Z,26.49
2018-08-03T08:07:19.512Z,26.82
2018-08-03T08:09:58.533Z,26.92
2018-08-03T08:12:27.248Z,26.83
2018-08-03T08:14:56.216Z,26.91
2018-08-03T08:17:24.752Z,26.97
2018-08-03T08:19:56.391Z,26.99
2018-08-03T08:22:25.040Z,27.20
2018-08-03T08:24:53.594Z,27.35
2018-08-03T08:27:22.249Z,27.38
2018-08-03T08:29:50.750Z,27.38
2018-08-03T08:32:29.129Z,27.53
2018-08-03T08:35:00.304Z,27.80
2018-08-03T08:37:29.169Z,27.73
2018-08-03T08:39:58.545Z,27.84
2018-08-03T08:42:27.120Z,27.87
2018-08-03T08:44:59.359Z,27.92
2018-08-03T08:47:27.905Z,28.25
2018-08-03T08:49:56.484Z,28.19
2018-08-03T08:52:25.104Z,28.29
2018-08-03T08:54:53.757Z,28.31
2018-08-03T08:57:22.616Z,28.34
2018-08-03T08:59:51.448Z,28.53
2018-08-03T09:02:21.554Z,28.48
2018-08-03T09:04:50.053Z,28.81
2018-08-03T09:07:18.577Z,28.62
2018-08-03T09:09:47.645Z,28.82
2018-08-03T09:12:16.159Z,28.65
2018-08-03T09:14:46.173Z,28.92
2018-08-03T09:17:15.780Z,28.79
2018-08-03T09:19:44.307Z,28.99
2018-08-03T09:22:23.491Z,29.04
2018-08-03T09:24:52.228Z,29.05
2018-08-03T09:27:20.815Z,29.01
2018-08-03T09:29:49.348Z,29.08
2018-08-03T09:32:17.849Z,29.27
2018-08-03T09:34:46.389Z,29.33
2018-08-03T09:37:15.711Z,29.56
2018-08-03T09:39:44.361Z,29.88
2018-08-03T09:42:18.233Z,29.80
2018-08-03T09:44:47.096Z,29.66
2018-08-03T09:47:15.948Z,29.97
2018-08-03T09:49:44.509Z,30.03
2018-08-03T09:52:21.708Z,30.24
2018-08-03T09:54:50.781Z,30.11
2018-08-03T09:57:20.029Z,29.97
2018-08-03T09:59:48.686Z,30.22
2018-08-03T10:02:17.404Z,30.35
2018-08-03T10:04:46.448Z,30.37
2018-08-03T10:07:15.009Z,30.33
2018-08-03T10:09:49.730Z,30.23
2018-08-03T10:12:18.563Z,30.48
2018-08-03T10:14:47.407Z,31.09
2018-08-03T10:17:16.864Z,30.89
2018-08-03T10:19:46.441Z,30.67
2018-08-03T10:22:14.933Z,30.75
2018-08-03T10:24:46.670Z,30.94
2018-08-03T10:27:15.181Z,30.96
2018-08-03T10:29:43.762Z,31.14
2018-08-03T10:32:12.313Z,31.61
2018-08-03T10:34:40.852Z,31.44
2018-08-03T10:37:09.358Z,31.29
2018-08-03T10:39:37.903Z,31.66
2018-08-03T10:42:06.413Z,31.88
2018-08-03T10:44:35.224Z,31.71
2018-08-03T10:47:03.772Z,32.01
2018-08-03T10:49:32.276Z,32.14
2018-08-03T10:52:00.796Z,32.43
2018-08-03T10:54:29.333Z,32.05
2018-08-03T10:56:57.856Z,32.09
2018-08-03T10:59:26.380Z,32.47
2018-08-03T11:01:55.240Z,32.40
2018-08-03T11:04:23.788Z,32.30
2018-08-03T11:06:52.367Z,32.21
2018-08-03T11:09:20.863Z,32.47
2018-08-03T11:11:49.365Z,32.69
2018-08-03T11:14:17.904Z,32.34
2018-08-03T11:16:46.686Z,31.95
2018-08-03T11:19:15.531Z,32.25
2018-08-03T11:21:44.025Z,32.38
2018-08-03T11:24:12.636Z,32.56
2018-08-03T11:26:41.100Z,32.45
2018-08-03T11:29:09.638Z,32.56
2018-08-03T11:31:38.141Z,32.69
2018-08-03T11:34:07.055Z,32.69
2018-08-03T11:36:35.603Z,33.16
2018-08-03T11:39:04.284Z,32.96
2018-08-03T11:41:32.816Z,32.88
2018-08-03T11:44:01.316Z,32.76
2018-08-03T11:46:29.889Z,32.64
2018-08-03T11:48:58.424Z,32.69
2018-08-03T11:51:27.196Z,33.11
2018-08-03T11:53:55.992Z,32.53
2018-08-03T11:56:24.529Z,32.14
2018-08-03T11:58:53.057Z,31.98
2018-08-03T12:01:21.596Z,31.94
2018-08-03T12:03:50.362Z,32.31
2018-08-03T12:06:18.929Z,32.64
2018-08-03T12:08:47.432Z,33.02
2018-08-03T12:11:16.876Z,33.09
2018-08-03T12:13:45.444Z,33.30
2018-08-03T12:16:14.457Z,33.27
2018-08-03T12:18:42.977Z,33.46
2018-08-03T12:21:11.504Z,33.42
2018-08-03T12:23:40.037Z,33.39
2018-08-03T12:26:08.580Z,33.43
2018-08-03T12:28:37.115Z,33.51
2018-08-03T12:31:09.192Z,33.48
2018-08-03T12:33:37.704Z,33.55
2018-08-03T12:36:06.615Z,33.98
2018-08-03T12:38:35.113Z,33.60
2018-08-03T12:41:04.047Z,33.98
2018-08-03T12:43:32.556Z,34.24
2018-08-03T12:46:01.184Z,34.10
2018-08-03T12:48:29.653Z,34.08
2018-08-03T12:50:58.181Z,34.34
2018-08-03T12:53:28.265Z,34.01
2018-08-03T12:55:56.832Z,34.19
2018-08-03T12:58:25.362Z,34.41
2018-08-03T13:00:53.913Z,33.90
2018-08-03T13:03:22.416Z,34.43
2018-08-03T13:05:51.017Z,34.58
2018-08-03T13:08:19.628Z,34.50
2018-08-03T13:10:48.102Z,34.58
2018-08-03T13:13:17.194Z,34.55
2018-08-03T13:15:45.792Z,34.48
2018-08-03T13:18:14.284Z,34.50
2018-08-03T13:20:43.223Z,34.44
2018-08-03T13:23:12.479Z,34.33
2018-08-03T13:25:41.024Z,34.45
2018-08-03T13:28:09.555Z,34.40
2018-08-03T13:30:38.112Z,34.52
2018-08-03T13:33:06.924Z,34.52
2018-08-03T13:35:36.109Z,34.40
2018-08-03T13:38:10.139Z,34.68
2018-08-03T13:40:38.871Z,34.94
2018-08-03T13:43:08.188Z,35.12
2018-08-03T13:45:36.720Z,35.02
2018-08-03T13:48:05.281Z,34.98
2018-08-03T13:50:33.780Z,35.03
2018-08-03T13:53:08.987Z,35.19
2018-08-03T13:55:41.615Z,35.26
2018-08-03T13:58:10.353Z,35.22
2018-08-03T14:00:43.677Z,35.18
2018-08-03T14:03:12.232Z,35.29
2018-08-03T14:05:41.380Z,35.18
2018-08-03T14:08:09.993Z,34.94
2018-08-03T14:10:38.494Z,34.70
2018-08-03T14:13:07.032Z,35.19
2018-08-03T14:15:35.536Z,35.36
2018-08-03T14:18:04.745Z,35.52
2018-08-03T14:20:35.203Z,35.66
2018-08-03T14:23:05.145Z,35.47
2018-08-03T14:25:33.788Z,35.58
2018-08-03T14:28:06.435Z,35.97
2018-08-03T14:30:36.518Z,35.87
2018-08-03T14:33:05.442Z,35.86
2018-08-03T14:35:34.255Z,35.52
2018-08-03T14:38:02.842Z,35.62
2018-08-03T14:40:32.885Z,35.55
2018-08-03T14:43:02.770Z,35.41
2018-08-03T14:45:31.506Z,35.10
2018-08-03T14:48:00.042Z,35.46
2018-08-03T14:50:29.005Z,35.35
2018-08-03T14:52:57.860Z,35.42
2018-08-03T14:55:26.942Z,35.70
2018-08-03T14:57:55.683Z,35.73
2018-08-03T15:00:24.524Z,36.07
2018-08-03T15:02:56.287Z,36.19
2018-08-03T15:05:27.717Z,35.98
2018-08-03T15:07:56.814Z,36.28
2018-08-03T15:10:25.923Z,35.83
2018-08-03T15:12:54.473Z,35.99
2018-08-03T15:15:23.005Z,35.96
2018-08-03T15:17:51.557Z,36.32
2018-08-03T15:20:20.069Z,36.48
2018-08-03T15:22:48.797Z,36.38
2018-08-03T15:25:18.247Z,36.02
2018-08-03T15:27:46.780Z,36.33
2018-08-03T15:30:15.416Z,36.49
2018-08-03T15:32:45.264Z,36.64
2018-08-03T15:35:13.872Z,36.61
2018-08-03T15:37:42.500Z,36.65
2018-08-03T15:40:11.109Z,36.87
2018-08-03T15:42:39.656Z,36.46
2018-08-03T15:45:10.525Z,36.51
2018-08-03T15:47:39.923Z,36.37
2018-08-03T15:50:08.877Z,36.54
2018-08-03T15:52:37.629Z,36.85
2018-08-03T15:55:06.348Z,36.22
2018-08-03T15:57:35.340Z,35.85
2018-08-03T16:00:05.022Z,35.76
2018-08-03T16:02:33.527Z,36.19
2018-08-03T16:05:02.157Z,36.18
2018-08-03T16:07:30.892Z,36.54
2018-08-03T16:09:59.725Z,36.76
2018-08-03T16:12:28.304Z,36.95
2018-08-03T16:14:57.531Z,37.27
2018-08-03T16:17:26.436Z,37.03
2018-08-03T16:19:55.056Z,37.49
2018-08-03T16:22:23.596Z,37.79
2018-08-03T16:24:52.125Z,37.51
2018-08-03T16:27:20.680Z,37.38
2018-08-03T16:29:49.412Z,37.84
2018-08-03T16:32:18.652Z,37.63
2018-08-03T16:34:47.415Z,37.92
2018-08-03T16:37:15.972Z,38.16
2018-08-03T16:39:44.637Z,37.99
2018-08-03T16:42:13.160Z,37.93
2018-08-03T16:44:41.748Z,37.83
2018-08-03T16:47:10.272Z,37.71
2018-08-03T16:49:40.042Z,37.81
2018-08-03T16:52:14.521Z,37.80
2018-08-03T16:54:43.292Z,37.49
2018-08-03T16:57:11.884Z,37.54
2018-08-03T16:59:40.445Z,37.77
2018-08-03T17:02:11.944Z,37.62
2018-08-03T17:04:40.534Z,37.42
2018-08-03T17:07:09.116Z,37.41
2018-08-03T17:09:37.648Z,37.42
2018-08-03T17:12:06.170Z,38.48
2018-08-03T17:14:34.697Z,41.62
2018-08-03T17:17:03.204Z,43.37
2018-08-03T17:19:31.757Z,43.21
2018-08-03T17:22:00.252Z,43.89
2018-08-03T17:24:28.813Z,44.91
2018-08-03T17:26:57.333Z,40.73
2018-08-03T17:29:25.864Z,42.36
2018-08-03T17:31:54.416Z,41.95
2018-08-03T17:34:22.957Z,41.34
2018-08-03T17:36:51.504Z,42.88
2018-08-03T17:39:20.041Z,43.74
2018-08-03T17:41:48.705Z,42.95
2018-08-03T17:44:17.335Z,42.75
2018-08-03T17:46:45.856Z,42.30
2018-08-03T17:49:14.402Z,42.44
2018-08-03T17:51:42.927Z,42.04
2018-08-03T17:54:11.488Z,40.12
2018-08-03T17:56:42.154Z,41.43
2018-08-03T17:59:12.689Z,40.56
2018-08-03T18:01:42.824Z,40.06
2018-08-03T18:04:11.440Z,39.11
2018-08-03T18:06:40.273Z,38.47
2018-08-03T18:09:09.664Z,38.82
2018-08-03T18:11:38.628Z,37.60
2018-08-03T18:14:07.160Z,37.08
2018-08-03T18:16:35.706Z,37.40
2018-08-03T18:19:05.008Z,36.79
2018-08-03T18:21:33.932Z,36.12
2018-08-03T18:24:02.449Z,35.68
2018-08-03T18:26:36.477Z,35.82
2018-08-03T18:29:05.183Z,35.75
2018-08-03T18:31:33.648Z,35.32
2018-08-03T18:34:02.186Z,34.65
2018-08-03T18:36:30.743Z,34.48
2018-08-03T18:38:59.260Z,33.37
2018-08-03T18:41:27.801Z,33.00
2018-08-03T18:43:56.312Z,32.99
2018-08-03T18:46:24.886Z,32.38
2018-08-03T18:48:53.395Z,32.14
2018-08-03T18:51:22.216Z,31.67
2018-08-03T18:53:50.732Z,31.35
2018-08-03T18:56:19.277Z,31.25
2018-08-03T18:58:47.793Z,31.00
2018-08-03T19:01:16.344Z,30.82
2018-08-03T19:03:44.856Z,30.60
2018-08-03T19:06:13.399Z,30.52
2018-08-03T19:08:41.892Z,30.01
2018-08-03T19:11:10.419Z,30.12
2018-08-03T19:13:38.945Z,29.75
2018-08-03T19:16:09.037Z,29.79
2018-08-03T19:18:40.971Z,29.59
2018-08-03T19:21:12.968Z,29.02
2018-08-03T19:23:43.805Z,29.06
2018-08-03T19:26:15.462Z,28.92
2018-08-03T19:28:46.826Z,28.85
2018-08-03T19:31:17.556Z,28.64
2018-08-03T19:33:47.477Z,28.35
2018-08-03T19:36:20.419Z,28.34
2018-08-03T19:38:53.214Z,28.48
2018-08-03T19:41:25.965Z,28.29
2018-08-03T19:43:56.784Z,28.24
2018-08-03T19:46:29.615Z,28.23
2018-08-03T19:49:02.995Z,28.14
2018-08-03T19:51:34.476Z,27.87
2018-08-03T19:54:05.109Z,27.75
2018-08-03T19:56:36.564Z,27.59
2018-08-03T19:59:07.968Z,27.45
2018-08-03T20:01:45.077Z,27.43
2018-08-03T20:04:18.164Z,27.04
2018-08-03T20:06:50.219Z,27.08
2018-08-03T20:09:25.969Z,26.99
2018-08-03T20:11:59.144Z,26.79
2018-08-03T20:14:31.146Z,26.72
2018-08-03T20:17:03.181Z,26.34
2018-08-03T20:19:36.353Z,26.58
2018-08-03T20:22:18.061Z,26.64
2018-08-03T20:24:47.253Z,26.54
2018-08-03T20:27:16.400Z,26.38
2018-08-03T20:29:45.368Z,26.43
2018-08-03T20:32:14.005Z,26.02
2018-08-03T20:34:42.516Z,25.96
2018-08-03T20:37:11.083Z,25.91
2018-08-03T20:39:39.615Z,25.96
2018-08-03T20:42:08.497Z,25.71
2018-08-03T20:44:37.039Z,25.40
2018-08-03T20:47:05.588Z,25.49
2018-08-03T20:49:34.105Z,25.21
2018-08-03T20:52:02.707Z,25.08
2018-08-03T20:54:31.184Z,25.10
2018-08-03T20:56:59.713Z,25.12
2018-08-03T20:59:28.232Z,24.83
2018-08-03T21:01:56.778Z,24.57
2018-08-03T21:04:25.323Z,24.87
2018-08-03T21:06:53.857Z,24.99
2018-08-03T21:09:22.360Z,24.84
2018-08-03T21:11:51.176Z,24.92
2018-08-03T21:14:20.101Z,24.44
2018-08-03T21:16:48.655Z,24.24
2018-08-03T21:19:17.161Z,24.63
2018-08-03T21:21:45.668Z,24.75
2018-08-03T21:24:14.201Z,24.81
2018-08-03T21:26:43.096Z,24.79
2018-08-03T21:29:18.906Z,24.84
2018-08-03T21:31:47.853Z,24.70
2018-08-03T21:34:17.056Z,24.45
2018-08-03T21:36:46.214Z,24.48
2018-08-03T21:39:15.539Z,24.50
2018-08-03T21:41:44.917Z,24.25
2018-08-03T21:44:14.455Z,24.11
2018-08-03T21:46:43.824Z,24.20
2018-08-03T21:49:13.384Z,24.20
2018-08-03T21:51:41.888Z,24.20
2018-08-03T21:54:10.816Z,24.05
2018-08-03T21:56:39.380Z,24.12
2018-08-03T21:59:09.103Z,24.16
2018-08-03T22:01:38.745Z,24.08
2018-08-03T22:04:08.535Z,24.22
2018-08-03T22:06:38.388Z,24.06
2018-08-03T22:09:10.346Z,24.04
2018-08-03T22:11:39.032Z,24.07
2018-08-03T22:14:07.892Z,24.04
2018-08-03T22:16:36.397Z,23.57
2018-08-03T22:19:05.936Z,23.22
2018-08-03T22:21:36.122Z,23.09
2018-08-03T22:24:05.682Z,23.52
2018-08-03T22:26:35.253Z,23.52
2018-08-03T22:29:04.834Z,23.49
2018-08-03T22:31:34.648Z,23.61
2018-08-03T22:34:04.416Z,23.60
2018-08-03T22:36:34.093Z,23.45
2018-08-03T22:39:05.613Z,23.18
2018-08-03T22:41:35.343Z,23.16
2018-08-03T22:44:05.208Z,23.20
2018-08-03T22:46:34.151Z,23.16
2018-08-03T22:49:03.937Z,23.05
2018-08-03T22:51:33.098Z,23.09
2018-08-03T22:54:01.642Z,22.78
2018-08-03T22:56:30.144Z,22.86
2018-08-03T22:58:58.680Z,22.36
2018-08-03T23:01:27.620Z,22.80
2018-08-03T23:03:56.913Z,22.84
2018-08-03T23:06:26.898Z,22.91
2018-08-03T23:08:56.188Z,22.88
2018-08-03T23:11:25.019Z,22.71
2018-08-03T23:13:55.079Z,22.63
2018-08-03T23:16:23.884Z,22.60
2018-08-03T23:18:53.220Z,22.50
2018-08-03T23:21:22.727Z,22.48
2018-08-03T23:23:52.344Z,22.38
2018-08-03T23:26:20.896Z,22.36
2018-08-03T23:28:49.434Z,22.53
2018-08-03T23:31:17.940Z,22.64
2018-08-03T23:33:46.473Z,22.44
2018-08-03T23:36:17.234Z,22.33
2018-08-03T23:39:03.239Z,22.13
2018-08-03T23:41:37.949Z,22.26
2018-08-03T23:44:15.595Z,22.34
2018-08-03T23:46:50.398Z,22.37
2018-08-03T23:49:31.295Z,22.22
2018-08-03T23:52:07.130Z,22.01
2018-08-03T23:57:31.465Z,21.91
